sensor_id;sensor_type;location;lat;lon;timestamp;P1;durP1;ratioP1;P2;durP2;ratioP2
55053;SDS011;40954;45.668;18.980;2023-04-08T00:01:09;38.35;;;31.73;;
55053;SDS011;40954;45.668;18.980;2023-04-08T00:03:35;43.55;;;33.25;;
55053;SDS011;40954;45.668;18.980;2023-04-08T00:06:01;42.20;;;34.25;;
55053;SDS011;40954;45.668;18.980;2023-04-08T00:08:28;40.50;;;33.85;;
55053;SDS011;40954;45.668;18.980;2023-04-08T00:10:54;44.08;;;36.63;;
55053;SDS011;40954;45.668;18.980;2023-04-08T00:13:20;42.67;;;35.78;;
55053;SDS011;40954;45.668;18.980;2023-04-08T00:15:47;43.65;;;35.97;;
55053;SDS011;40954;45.668;18.980;2023-04-08T00:18:13;41.08;;;34.60;;
55053;SDS011;40954;45.668;18.980;2023-04-08T00:20:40;49.53;;;37.67;;
55053;SDS011;40954;45.668;18.980;2023-04-08T00:23:06;50.05;;;36.72;;
55053;SDS011;40954;45.668;18.980;2023-04-08T00:25:32;46.00;;;35.33;;
55053;SDS011;40954;45.668;18.980;2023-04-08T00:27:58;37.70;;;31.20;;
55053;SDS011;40954;45.668;18.980;2023-04-08T00:30:24;41.85;;;33.88;;
55053;SDS011;40954;45.668;18.980;2023-04-08T00:32:53;43.83;;;35.20;;
55053;SDS011;40954;45.668;18.980;2023-04-08T00:35:19;53.65;;;37.58;;
55053;SDS011;40954;45.668;18.980;2023-04-08T00:37:45;51.85;;;39.40;;
55053;SDS011;40954;45.668;18.980;2023-04-08T00:40:12;51.03;;;39.17;;
55053;SDS011;40954;45.668;18.980;2023-04-08T00:42:38;52.65;;;41.45;;
55053;SDS011;40954;45.668;18.980;2023-04-08T00:45:04;53.22;;;41.08;;
55053;SDS011;40954;45.668;18.980;2023-04-08T00:47:30;53.60;;;40.10;;
55053;SDS011;40954;45.668;18.980;2023-04-08T00:49:56;45.10;;;35.97;;
55053;SDS011;40954;45.668;18.980;2023-04-08T00:52:22;45.50;;;36.78;;
55053;SDS011;40954;45.668;18.980;2023-04-08T00:54:48;44.65;;;35.55;;
55053;SDS011;40954;45.668;18.980;2023-04-08T00:57:14;49.30;;;38.67;;
55053;SDS011;40954;45.668;18.980;2023-04-08T00:59:41;51.60;;;37.88;;
55053;SDS011;40954;45.668;18.980;2023-04-08T01:04:53;49.08;;;37.03;;
55053;SDS011;40954;45.668;18.980;2023-04-08T01:07:30;47.40;;;36.00;;
55053;SDS011;40954;45.668;18.980;2023-04-08T01:09:58;43.22;;;34.70;;
55053;SDS011;40954;45.668;18.980;2023-04-08T01:12:28;45.25;;;35.28;;
55053;SDS011;40954;45.668;18.980;2023-04-08T01:15:02;42.33;;;34.42;;
55053;SDS011;40954;45.668;18.980;2023-04-08T01:17:29;43.75;;;35.33;;
55053;SDS011;40954;45.668;18.980;2023-04-08T01:19:56;43.35;;;35.00;;
55053;SDS011;40954;45.668;18.980;2023-04-08T01:25:04;43.92;;;35.83;;
55053;SDS011;40954;45.668;18.980;2023-04-08T01:27:32;45.45;;;35.85;;
55053;SDS011;40954;45.668;18.980;2023-04-08T01:29:58;45.95;;;36.47;;
55053;SDS011;40954;45.668;18.980;2023-04-08T01:32:25;49.38;;;36.88;;
55053;SDS011;40954;45.668;18.980;2023-04-08T01:34:52;50.75;;;37.65;;
55053;SDS011;40954;45.668;18.980;2023-04-08T01:37:19;61.47;;;41.75;;
55053;SDS011;40954;45.668;18.980;2023-04-08T01:39:46;61.53;;;42.70;;
55053;SDS011;40954;45.668;18.980;2023-04-08T01:42:12;68.43;;;45.28;;
55053;SDS011;40954;45.668;18.980;2023-04-08T01:44:39;65.20;;;44.53;;
55053;SDS011;40954;45.668;18.980;2023-04-08T01:47:05;72.30;;;46.20;;
55053;SDS011;40954;45.668;18.980;2023-04-08T01:49:31;69.75;;;45.72;;
55053;SDS011;40954;45.668;18.980;2023-04-08T01:51:58;79.03;;;45.72;;
55053;SDS011;40954;45.668;18.980;2023-04-08T01:54:25;73.30;;;46.35;;
55053;SDS011;40954;45.668;18.980;2023-04-08T01:56:51;68.88;;;44.85;;
55053;SDS011;40954;45.668;18.980;2023-04-08T01:59:18;69.03;;;44.40;;
55053;SDS011;40954;45.668;18.980;2023-04-08T02:01:46;60.20;;;43.33;;
55053;SDS011;40954;45.668;18.980;2023-04-08T02:04:12;67.68;;;44.35;;
55053;SDS011;40954;45.668;18.980;2023-04-08T02:06:38;64.80;;;44.50;;
55053;SDS011;40954;45.668;18.980;2023-04-08T02:09:04;70.13;;;44.95;;
55053;SDS011;40954;45.668;18.980;2023-04-08T02:11:31;76.85;;;48.47;;
55053;SDS011;40954;45.668;18.980;2023-04-08T02:13:57;86.57;;;51.47;;
55053;SDS011;40954;45.668;18.980;2023-04-08T02:16:28;95.22;;;54.10;;
55053;SDS011;40954;45.668;18.980;2023-04-08T02:18:57;80.32;;;49.85;;
55053;SDS011;40954;45.668;18.980;2023-04-08T02:21:30;78.68;;;48.17;;
55053;SDS011;40954;45.668;18.980;2023-04-08T02:23:57;71.70;;;44.83;;
55053;SDS011;40954;45.668;18.980;2023-04-08T02:26:24;58.78;;;39.58;;
55053;SDS011;40954;45.668;18.980;2023-04-08T02:28:51;64.75;;;41.90;;
55053;SDS011;40954;45.668;18.980;2023-04-08T02:31:17;57.53;;;39.92;;
55053;SDS011;40954;45.668;18.980;2023-04-08T02:33:44;58.25;;;39.50;;
55053;SDS011;40954;45.668;18.980;2023-04-08T02:36:10;64.20;;;41.03;;
55053;SDS011;40954;45.668;18.980;2023-04-08T02:38:37;63.20;;;41.88;;
55053;SDS011;40954;45.668;18.980;2023-04-08T02:41:03;56.85;;;39.97;;
55053;SDS011;40954;45.668;18.980;2023-04-08T02:43:29;55.15;;;39.00;;
55053;SDS011;40954;45.668;18.980;2023-04-08T02:45:58;54.97;;;39.00;;
55053;SDS011;40954;45.668;18.980;2023-04-08T02:48:27;53.85;;;41.25;;
55053;SDS011;40954;45.668;18.980;2023-04-08T02:50:53;53.33;;;40.92;;
55053;SDS011;40954;45.668;18.980;2023-04-08T02:53:20;56.40;;;43.17;;
55053;SDS011;40954;45.668;18.980;2023-04-08T02:55:46;54.63;;;41.92;;
55053;SDS011;40954;45.668;18.980;2023-04-08T02:58:12;58.38;;;41.63;;
55053;SDS011;40954;45.668;18.980;2023-04-08T03:00:38;55.80;;;43.63;;
55053;SDS011;40954;45.668;18.980;2023-04-08T03:03:04;54.83;;;41.08;;
55053;SDS011;40954;45.668;18.980;2023-04-08T03:05:31;57.67;;;42.03;;
55053;SDS011;40954;45.668;18.980;2023-04-08T03:07:57;54.13;;;39.70;;
55053;SDS011;40954;45.668;18.980;2023-04-08T03:10:23;53.03;;;38.78;;
55053;SDS011;40954;45.668;18.980;2023-04-08T03:12:49;53.22;;;39.20;;
55053;SDS011;40954;45.668;18.980;2023-04-08T03:15:16;50.08;;;39.17;;
55053;SDS011;40954;45.668;18.980;2023-04-08T03:17:42;51.40;;;38.13;;
55053;SDS011;40954;45.668;18.980;2023-04-08T03:20:08;51.10;;;39.05;;
55053;SDS011;40954;45.668;18.980;2023-04-08T03:22:34;49.75;;;37.88;;
55053;SDS011;40954;45.668;18.980;2023-04-08T03:25:00;50.20;;;37.45;;
55053;SDS011;40954;45.668;18.980;2023-04-08T03:27:27;57.28;;;39.35;;
55053;SDS011;40954;45.668;18.980;2023-04-08T03:29:53;51.80;;;38.50;;
55053;SDS011;40954;45.668;18.980;2023-04-08T03:32:19;48.65;;;38.63;;
55053;SDS011;40954;45.668;18.980;2023-04-08T03:34:45;49.30;;;39.00;;
55053;SDS011;40954;45.668;18.980;2023-04-08T03:37:11;54.53;;;38.97;;
55053;SDS011;40954;45.668;18.980;2023-04-08T03:39:37;50.38;;;37.97;;
55053;SDS011;40954;45.668;18.980;2023-04-08T03:42:03;49.53;;;39.20;;
55053;SDS011;40954;45.668;18.980;2023-04-08T03:44:29;47.10;;;36.60;;
55053;SDS011;40954;45.668;18.980;2023-04-08T03:46:55;49.83;;;37.78;;
55053;SDS011;40954;45.668;18.980;2023-04-08T03:49:21;44.05;;;36.58;;
55053;SDS011;40954;45.668;18.980;2023-04-08T03:51:47;48.28;;;38.08;;
55053;SDS011;40954;45.668;18.980;2023-04-08T03:54:13;48.28;;;37.35;;
55053;SDS011;40954;45.668;18.980;2023-04-08T03:56:39;52.10;;;37.85;;
55053;SDS011;40954;45.668;18.980;2023-04-08T03:59:05;50.72;;;37.78;;
55053;SDS011;40954;45.668;18.980;2023-04-08T04:01:31;48.15;;;37.63;;
55053;SDS011;40954;45.668;18.980;2023-04-08T04:03:57;50.75;;;37.80;;
55053;SDS011;40954;45.668;18.980;2023-04-08T04:06:23;54.60;;;40.47;;
55053;SDS011;40954;45.668;18.980;2023-04-08T04:08:52;47.53;;;37.35;;
55053;SDS011;40954;45.668;18.980;2023-04-08T04:11:19;52.80;;;39.53;;
55053;SDS011;40954;45.668;18.980;2023-04-08T04:13:46;47.70;;;38.25;;
55053;SDS011;40954;45.668;18.980;2023-04-08T04:16:12;52.45;;;39.20;;
55053;SDS011;40954;45.668;18.980;2023-04-08T04:18:38;47.83;;;38.28;;
55053;SDS011;40954;45.668;18.980;2023-04-08T04:21:04;49.28;;;39.10;;
55053;SDS011;40954;45.668;18.980;2023-04-08T04:23:34;46.70;;;37.80;;
55053;SDS011;40954;45.668;18.980;2023-04-08T04:26:00;49.70;;;38.00;;
55053;SDS011;40954;45.668;18.980;2023-04-08T04:28:26;50.80;;;40.35;;
55053;SDS011;40954;45.668;18.980;2023-04-08T04:30:52;54.13;;;39.97;;
55053;SDS011;40954;45.668;18.980;2023-04-08T04:33:18;47.30;;;38.10;;
55053;SDS011;40954;45.668;18.980;2023-04-08T04:35:44;48.40;;;37.55;;
55053;SDS011;40954;45.668;18.980;2023-04-08T04:38:10;49.10;;;39.25;;
55053;SDS011;40954;45.668;18.980;2023-04-08T04:40:37;44.65;;;36.85;;
55053;SDS011;40954;45.668;18.980;2023-04-08T04:43:03;47.38;;;37.92;;
55053;SDS011;40954;45.668;18.980;2023-04-08T04:45:29;49.33;;;38.47;;
55053;SDS011;40954;45.668;18.980;2023-04-08T04:47:55;47.28;;;37.25;;
55053;SDS011;40954;45.668;18.980;2023-04-08T04:50:22;48.08;;;37.92;;
55053;SDS011;40954;45.668;18.980;2023-04-08T04:52:48;50.08;;;39.25;;
55053;SDS011;40954;45.668;18.980;2023-04-08T04:55:14;52.45;;;38.67;;
55053;SDS011;40954;45.668;18.980;2023-04-08T04:57:40;51.10;;;39.95;;
55053;SDS011;40954;45.668;18.980;2023-04-08T05:00:08;60.55;;;43.55;;
55053;SDS011;40954;45.668;18.980;2023-04-08T05:02:34;64.70;;;45.47;;
55053;SDS011;40954;45.668;18.980;2023-04-08T05:05:00;59.28;;;43.55;;
55053;SDS011;40954;45.668;18.980;2023-04-08T05:07:26;54.70;;;43.70;;
55053;SDS011;40954;45.668;18.980;2023-04-08T05:09:52;60.50;;;47.22;;
55053;SDS011;40954;45.668;18.980;2023-04-08T05:12:18;60.53;;;46.58;;
55053;SDS011;40954;45.668;18.980;2023-04-08T05:14:45;58.88;;;44.85;;
55053;SDS011;40954;45.668;18.980;2023-04-08T05:17:11;57.15;;;44.50;;
55053;SDS011;40954;45.668;18.980;2023-04-08T05:19:37;60.60;;;46.58;;
55053;SDS011;40954;45.668;18.980;2023-04-08T05:22:03;58.65;;;46.25;;
55053;SDS011;40954;45.668;18.980;2023-04-08T05:24:29;54.60;;;42.28;;
55053;SDS011;40954;45.668;18.980;2023-04-08T05:26:55;52.08;;;42.78;;
55053;SDS011;40954;45.668;18.980;2023-04-08T05:29:21;55.38;;;42.28;;
55053;SDS011;40954;45.668;18.980;2023-04-08T05:31:48;50.90;;;40.25;;
55053;SDS011;40954;45.668;18.980;2023-04-08T05:34:14;51.95;;;40.65;;
55053;SDS011;40954;45.668;18.980;2023-04-08T05:36:43;49.28;;;39.08;;
55053;SDS011;40954;45.668;18.980;2023-04-08T05:39:09;49.33;;;38.97;;
55053;SDS011;40954;45.668;18.980;2023-04-08T05:41:35;51.78;;;41.00;;
55053;SDS011;40954;45.668;18.980;2023-04-08T05:44:01;53.88;;;39.33;;
55053;SDS011;40954;45.668;18.980;2023-04-08T05:46:27;50.30;;;38.47;;
55053;SDS011;40954;45.668;18.980;2023-04-08T05:48:53;48.13;;;37.67;;
55053;SDS011;40954;45.668;18.980;2023-04-08T05:51:19;49.78;;;38.08;;
55053;SDS011;40954;45.668;18.980;2023-04-08T05:53:45;51.42;;;38.05;;
55053;SDS011;40954;45.668;18.980;2023-04-08T05:56:11;46.40;;;38.95;;
55053;SDS011;40954;45.668;18.980;2023-04-08T05:58:37;47.17;;;37.45;;
55053;SDS011;40954;45.668;18.980;2023-04-08T06:01:03;46.40;;;37.05;;
55053;SDS011;40954;45.668;18.980;2023-04-08T06:03:31;45.63;;;35.20;;
55053;SDS011;40954;45.668;18.980;2023-04-08T06:05:57;48.58;;;37.03;;
55053;SDS011;40954;45.668;18.980;2023-04-08T06:08:23;45.10;;;36.28;;
55053;SDS011;40954;45.668;18.980;2023-04-08T06:10:50;47.17;;;38.30;;
55053;SDS011;40954;45.668;18.980;2023-04-08T06:13:16;50.17;;;37.40;;
55053;SDS011;40954;45.668;18.980;2023-04-08T06:15:44;49.33;;;36.83;;
55053;SDS011;40954;45.668;18.980;2023-04-08T06:18:10;49.70;;;36.60;;
55053;SDS011;40954;45.668;18.980;2023-04-08T06:20:36;43.15;;;37.35;;
55053;SDS011;40954;45.668;18.980;2023-04-08T06:23:02;47.35;;;38.60;;
55053;SDS011;40954;45.668;18.980;2023-04-08T06:25:28;44.28;;;35.42;;
55053;SDS011;40954;45.668;18.980;2023-04-08T06:27:54;45.63;;;35.55;;
55053;SDS011;40954;45.668;18.980;2023-04-08T06:30:20;42.10;;;34.15;;
55053;SDS011;40954;45.668;18.980;2023-04-08T06:32:46;39.78;;;33.38;;
55053;SDS011;40954;45.668;18.980;2023-04-08T06:35:12;42.42;;;34.45;;
55053;SDS011;40954;45.668;18.980;2023-04-08T06:37:38;45.08;;;34.45;;
55053;SDS011;40954;45.668;18.980;2023-04-08T06:40:05;43.08;;;33.85;;
55053;SDS011;40954;45.668;18.980;2023-04-08T06:42:31;39.45;;;32.53;;
55053;SDS011;40954;45.668;18.980;2023-04-08T06:44:57;43.35;;;34.22;;
55053;SDS011;40954;45.668;18.980;2023-04-08T06:47:23;41.83;;;33.33;;
55053;SDS011;40954;45.668;18.980;2023-04-08T06:49:49;43.05;;;34.40;;
55053;SDS011;40954;45.668;18.980;2023-04-08T06:52:15;40.92;;;34.08;;
55053;SDS011;40954;45.668;18.980;2023-04-08T06:54:41;38.33;;;31.23;;
55053;SDS011;40954;45.668;18.980;2023-04-08T06:57:08;40.83;;;33.58;;
55053;SDS011;40954;45.668;18.980;2023-04-08T06:59:34;45.97;;;36.85;;
55053;SDS011;40954;45.668;18.980;2023-04-08T07:02:00;39.75;;;31.38;;
55053;SDS011;40954;45.668;18.980;2023-04-08T07:04:26;36.35;;;31.45;;
55053;SDS011;40954;45.668;18.980;2023-04-08T07:06:52;36.17;;;29.50;;
55053;SDS011;40954;45.668;18.980;2023-04-08T07:09:18;37.13;;;29.27;;
55053;SDS011;40954;45.668;18.980;2023-04-08T07:11:44;33.97;;;28.90;;
55053;SDS011;40954;45.668;18.980;2023-04-08T07:14:10;38.22;;;30.95;;
55053;SDS011;40954;45.668;18.980;2023-04-08T07:16:37;46.88;;;32.97;;
55053;SDS011;40954;45.668;18.980;2023-04-08T07:19:03;38.50;;;32.85;;
55053;SDS011;40954;45.668;18.980;2023-04-08T07:21:28;39.55;;;31.08;;
55053;SDS011;40954;45.668;18.980;2023-04-08T07:23:55;36.05;;;30.95;;
55053;SDS011;40954;45.668;18.980;2023-04-08T07:26:21;33.38;;;29.63;;
55053;SDS011;40954;45.668;18.980;2023-04-08T07:28:47;38.05;;;30.30;;
55053;SDS011;40954;45.668;18.980;2023-04-08T07:31:14;38.92;;;33.38;;
55053;SDS011;40954;45.668;18.980;2023-04-08T07:33:41;36.17;;;30.50;;
55053;SDS011;40954;45.668;18.980;2023-04-08T07:36:10;32.85;;;28.00;;
55053;SDS011;40954;45.668;18.980;2023-04-08T07:38:37;32.30;;;28.80;;
55053;SDS011;40954;45.668;18.980;2023-04-08T07:41:03;37.97;;;30.67;;
55053;SDS011;40954;45.668;18.980;2023-04-08T07:43:29;36.85;;;30.27;;
55053;SDS011;40954;45.668;18.980;2023-04-08T07:45:59;33.58;;;29.35;;
55053;SDS011;40954;45.668;18.980;2023-04-08T07:48:29;34.78;;;28.85;;
55053;SDS011;40954;45.668;18.980;2023-04-08T07:50:55;32.05;;;27.98;;
55053;SDS011;40954;45.668;18.980;2023-04-08T07:53:21;30.23;;;27.02;;
55053;SDS011;40954;45.668;18.980;2023-04-08T07:55:49;30.02;;;26.75;;
55053;SDS011;40954;45.668;18.980;2023-04-08T07:58:15;30.88;;;26.88;;
55053;SDS011;40954;45.668;18.980;2023-04-08T08:00:41;33.70;;;28.48;;
55053;SDS011;40954;45.668;18.980;2023-04-08T08:03:07;32.55;;;28.33;;
55053;SDS011;40954;45.668;18.980;2023-04-08T08:05:34;31.30;;;27.77;;
55053;SDS011;40954;45.668;18.980;2023-04-08T08:08:01;33.20;;;28.05;;
55053;SDS011;40954;45.668;18.980;2023-04-08T08:10:27;31.02;;;25.60;;
55053;SDS011;40954;45.668;18.980;2023-04-08T08:12:53;26.67;;;23.85;;
55053;SDS011;40954;45.668;18.980;2023-04-08T08:15:20;37.55;;;29.20;;
55053;SDS011;40954;45.668;18.980;2023-04-08T08:17:46;31.73;;;27.45;;
55053;SDS011;40954;45.668;18.980;2023-04-08T08:20:12;35.05;;;26.73;;
55053;SDS011;40954;45.668;18.980;2023-04-08T08:22:38;35.78;;;27.98;;
55053;SDS011;40954;45.668;18.980;2023-04-08T08:25:04;34.47;;;28.10;;
55053;SDS011;40954;45.668;18.980;2023-04-08T08:27:31;33.00;;;26.55;;
55053;SDS011;40954;45.668;18.980;2023-04-08T08:29:58;24.17;;;20.77;;
55053;SDS011;40954;45.668;18.980;2023-04-08T08:32:24;24.55;;;21.52;;
55053;SDS011;40954;45.668;18.980;2023-04-08T08:34:50;25.17;;;20.60;;
55053;SDS011;40954;45.668;18.980;2023-04-08T08:37:16;21.48;;;19.27;;
55053;SDS011;40954;45.668;18.980;2023-04-08T08:39:42;21.00;;;18.75;;
55053;SDS011;40954;45.668;18.980;2023-04-08T08:42:18;21.00;;;18.80;;
55053;SDS011;40954;45.668;18.980;2023-04-08T08:44:45;20.63;;;18.48;;
55053;SDS011;40954;45.668;18.980;2023-04-08T08:47:11;22.77;;;18.85;;
55053;SDS011;40954;45.668;18.980;2023-04-08T08:49:37;21.23;;;18.23;;
55053;SDS011;40954;45.668;18.980;2023-04-08T08:52:03;25.17;;;19.77;;
55053;SDS011;40954;45.668;18.980;2023-04-08T08:54:30;25.27;;;19.88;;
55053;SDS011;40954;45.668;18.980;2023-04-08T08:56:56;23.90;;;20.33;;
55053;SDS011;40954;45.668;18.980;2023-04-08T08:59:22;18.92;;;16.20;;
55053;SDS011;40954;45.668;18.980;2023-04-08T09:01:48;19.92;;;16.67;;
55053;SDS011;40954;45.668;18.980;2023-04-08T09:04:20;17.65;;;15.15;;
55053;SDS011;40954;45.668;18.980;2023-04-08T09:07:03;21.10;;;17.88;;
55053;SDS011;40954;45.668;18.980;2023-04-08T09:09:46;20.83;;;17.77;;
55053;SDS011;40954;45.668;18.980;2023-04-08T09:12:13;22.45;;;20.05;;
55053;SDS011;40954;45.668;18.980;2023-04-08T09:14:39;20.83;;;18.65;;
55053;SDS011;40954;45.668;18.980;2023-04-08T09:17:05;23.92;;;20.50;;
55053;SDS011;40954;45.668;18.980;2023-04-08T09:19:31;22.88;;;20.08;;
55053;SDS011;40954;45.668;18.980;2023-04-08T09:22:03;24.08;;;20.33;;
55053;SDS011;40954;45.668;18.980;2023-04-08T09:24:30;24.25;;;19.92;;
55053;SDS011;40954;45.668;18.980;2023-04-08T09:26:57;21.88;;;19.50;;
55053;SDS011;40954;45.668;18.980;2023-04-08T09:29:23;21.02;;;18.77;;
55053;SDS011;40954;45.668;18.980;2023-04-08T09:31:54;20.35;;;18.25;;
55053;SDS011;40954;45.668;18.980;2023-04-08T09:34:20;21.35;;;18.35;;
55053;SDS011;40954;45.668;18.980;2023-04-08T09:36:47;21.80;;;19.45;;
55053;SDS011;40954;45.668;18.980;2023-04-08T09:39:14;21.27;;;19.08;;
55053;SDS011;40954;45.668;18.980;2023-04-08T09:41:40;21.13;;;18.83;;
55053;SDS011;40954;45.668;18.980;2023-04-08T09:44:07;20.10;;;18.00;;
55053;SDS011;40954;45.668;18.980;2023-04-08T09:49:07;20.88;;;18.67;;
55053;SDS011;40954;45.668;18.980;2023-04-08T09:51:40;20.52;;;17.75;;
55053;SDS011;40954;45.668;18.980;2023-04-08T09:54:11;17.73;;;15.93;;
55053;SDS011;40954;45.668;18.980;2023-04-08T09:56:41;20.35;;;16.00;;
55053;SDS011;40954;45.668;18.980;2023-04-08T09:59:11;18.52;;;15.93;;
55053;SDS011;40954;45.668;18.980;2023-04-08T10:01:44;19.60;;;17.33;;
55053;SDS011;40954;45.668;18.980;2023-04-08T10:04:13;17.73;;;15.93;;
55053;SDS011;40954;45.668;18.980;2023-04-08T10:06:41;16.13;;;14.55;;
55053;SDS011;40954;45.668;18.980;2023-04-08T10:09:07;17.23;;;15.50;;
55053;SDS011;40954;45.668;18.980;2023-04-08T10:11:34;15.10;;;13.73;;
55053;SDS011;40954;45.668;18.980;2023-04-08T10:14:01;16.38;;;14.70;;
55053;SDS011;40954;45.668;18.980;2023-04-08T10:16:27;17.23;;;15.52;;
55053;SDS011;40954;45.668;18.980;2023-04-08T10:18:53;15.68;;;14.27;;
55053;SDS011;40954;45.668;18.980;2023-04-08T10:21:33;16.48;;;14.98;;
55053;SDS011;40954;45.668;18.980;2023-04-08T10:24:01;16.45;;;14.85;;
55053;SDS011;40954;45.668;18.980;2023-04-08T10:27:03;18.45;;;15.07;;
55053;SDS011;40954;45.668;18.980;2023-04-08T10:29:32;16.58;;;14.55;;
55053;SDS011;40954;45.668;18.980;2023-04-08T10:31:58;17.33;;;15.52;;
55053;SDS011;40954;45.668;18.980;2023-04-08T10:34:24;16.60;;;15.07;;
55053;SDS011;40954;45.668;18.980;2023-04-08T10:36:51;17.00;;;15.40;;
55053;SDS011;40954;45.668;18.980;2023-04-08T10:39:18;17.55;;;15.85;;
55053;SDS011;40954;45.668;18.980;2023-04-08T10:41:44;16.75;;;15.23;;
55053;SDS011;40954;45.668;18.980;2023-04-08T10:44:14;14.00;;;12.68;;
55053;SDS011;40954;45.668;18.980;2023-04-08T10:46:44;16.10;;;14.60;;
55053;SDS011;40954;45.668;18.980;2023-04-08T10:49:10;15.75;;;14.25;;
55053;SDS011;40954;45.668;18.980;2023-04-08T10:51:37;15.82;;;14.30;;
55053;SDS011;40954;45.668;18.980;2023-04-08T10:54:21;15.95;;;14.25;;
55053;SDS011;40954;45.668;18.980;2023-04-08T10:56:48;13.82;;;12.30;;
55053;SDS011;40954;45.668;18.980;2023-04-08T10:59:15;13.80;;;12.60;;
55053;SDS011;40954;45.668;18.980;2023-04-08T11:01:41;12.95;;;11.77;;
55053;SDS011;40954;45.668;18.980;2023-04-08T11:04:15;13.23;;;11.95;;
55053;SDS011;40954;45.668;18.980;2023-04-08T11:06:45;11.57;;;10.57;;
55053;SDS011;40954;45.668;18.980;2023-04-08T11:09:12;12.80;;;11.70;;
55053;SDS011;40954;45.668;18.980;2023-04-08T11:11:40;12.75;;;11.65;;
55053;SDS011;40954;45.668;18.980;2023-04-08T11:14:07;12.57;;;11.48;;
55053;SDS011;40954;45.668;18.980;2023-04-08T11:16:33;13.40;;;12.00;;
55053;SDS011;40954;45.668;18.980;2023-04-08T11:19:03;13.20;;;12.10;;
55053;SDS011;40954;45.668;18.980;2023-04-08T11:21:30;13.93;;;12.48;;
55053;SDS011;40954;45.668;18.980;2023-04-08T11:23:56;14.68;;;13.27;;
55053;SDS011;40954;45.668;18.980;2023-04-08T11:26:22;14.38;;;13.07;;
55053;SDS011;40954;45.668;18.980;2023-04-08T11:28:48;19.70;;;14.57;;
55053;SDS011;40954;45.668;18.980;2023-04-08T11:31:15;14.55;;;13.13;;
55053;SDS011;40954;45.668;18.980;2023-04-08T11:33:45;13.75;;;12.45;;
55053;SDS011;40954;45.668;18.980;2023-04-08T11:36:12;14.68;;;13.18;;
55053;SDS011;40954;45.668;18.980;2023-04-08T11:38:39;13.93;;;12.63;;
55053;SDS011;40954;45.668;18.980;2023-04-08T11:41:05;16.95;;;14.68;;
55053;SDS011;40954;45.668;18.980;2023-04-08T11:43:31;14.75;;;13.02;;
55053;SDS011;40954;45.668;18.980;2023-04-08T11:45:57;12.73;;;11.57;;
55053;SDS011;40954;45.668;18.980;2023-04-08T11:48:24;12.88;;;11.57;;
55053;SDS011;40954;45.668;18.980;2023-04-08T11:51:01;13.15;;;11.88;;
55053;SDS011;40954;45.668;18.980;2023-04-08T11:53:27;12.48;;;11.27;;
55053;SDS011;40954;45.668;18.980;2023-04-08T11:55:53;13.15;;;10.85;;
55053;SDS011;40954;45.668;18.980;2023-04-08T11:58:20;13.25;;;11.95;;
55053;SDS011;40954;45.668;18.980;2023-04-08T12:00:46;13.73;;;12.00;;
55053;SDS011;40954;45.668;18.980;2023-04-08T12:03:13;14.15;;;12.73;;
55053;SDS011;40954;45.668;18.980;2023-04-08T12:05:39;14.35;;;12.95;;
55053;SDS011;40954;45.668;18.980;2023-04-08T12:08:05;13.02;;;11.82;;
55053;SDS011;40954;45.668;18.980;2023-04-08T12:10:31;12.73;;;11.52;;
55053;SDS011;40954;45.668;18.980;2023-04-08T12:12:57;13.00;;;11.82;;
55053;SDS011;40954;45.668;18.980;2023-04-08T12:15:23;13.57;;;12.27;;
55053;SDS011;40954;45.668;18.980;2023-04-08T12:17:49;14.48;;;13.10;;
55053;SDS011;40954;45.668;18.980;2023-04-08T12:20:15;14.90;;;13.32;;
55053;SDS011;40954;45.668;18.980;2023-04-08T12:22:41;15.85;;;14.27;;
55053;SDS011;40954;45.668;18.980;2023-04-08T12:25:07;16.08;;;14.38;;
55053;SDS011;40954;45.668;18.980;2023-04-08T12:27:33;16.58;;;14.57;;
55053;SDS011;40954;45.668;18.980;2023-04-08T12:30:00;16.83;;;14.35;;
55053;SDS011;40954;45.668;18.980;2023-04-08T12:32:26;16.42;;;13.55;;
55053;SDS011;40954;45.668;18.980;2023-04-08T12:34:52;18.75;;;15.45;;
55053;SDS011;40954;45.668;18.980;2023-04-08T12:37:18;18.90;;;16.90;;
55053;SDS011;40954;45.668;18.980;2023-04-08T12:39:45;18.13;;;16.23;;
55053;SDS011;40954;45.668;18.980;2023-04-08T12:42:11;17.05;;;15.35;;
55053;SDS011;40954;45.668;18.980;2023-04-08T12:44:38;19.10;;;16.48;;
55053;SDS011;40954;45.668;18.980;2023-04-08T12:47:04;16.75;;;15.02;;
55053;SDS011;40954;45.668;18.980;2023-04-08T12:49:30;14.98;;;13.52;;
55053;SDS011;40954;45.668;18.980;2023-04-08T12:51:56;15.15;;;13.55;;
55053;SDS011;40954;45.668;18.980;2023-04-08T12:54:22;16.13;;;14.45;;
55053;SDS011;40954;45.668;18.980;2023-04-08T12:56:48;14.80;;;13.32;;
55053;SDS011;40954;45.668;18.980;2023-04-08T12:59:14;16.25;;;14.55;;
55053;SDS011;40954;45.668;18.980;2023-04-08T13:01:40;15.45;;;13.85;;
55053;SDS011;40954;45.668;18.980;2023-04-08T13:04:06;18.70;;;14.82;;
55053;SDS011;40954;45.668;18.980;2023-04-08T13:06:32;18.45;;;14.25;;
55053;SDS011;40954;45.668;18.980;2023-04-08T13:08:58;14.52;;;12.57;;
55053;SDS011;40954;45.668;18.980;2023-04-08T13:11:24;13.13;;;11.82;;
55053;SDS011;40954;45.668;18.980;2023-04-08T13:13:50;13.23;;;11.93;;
55053;SDS011;40954;45.668;18.980;2023-04-08T13:16:16;13.02;;;11.68;;
55053;SDS011;40954;45.668;18.980;2023-04-08T13:18:43;12.02;;;10.90;;
55053;SDS011;40954;45.668;18.980;2023-04-08T13:21:09;12.68;;;11.27;;
55053;SDS011;40954;45.668;18.980;2023-04-08T13:23:35;12.45;;;11.20;;
55053;SDS011;40954;45.668;18.980;2023-04-08T13:26:01;11.00;;;10.00;;
55053;SDS011;40954;45.668;18.980;2023-04-08T13:28:27;12.82;;;11.52;;
55053;SDS011;40954;45.668;18.980;2023-04-08T13:30:53;12.82;;;11.60;;
55053;SDS011;40954;45.668;18.980;2023-04-08T13:33:20;13.07;;;11.73;;
55053;SDS011;40954;45.668;18.980;2023-04-08T13:35:46;12.18;;;11.00;;
55053;SDS011;40954;45.668;18.980;2023-04-08T13:38:12;12.13;;;10.98;;
55053;SDS011;40954;45.668;18.980;2023-04-08T13:40:38;12.52;;;11.27;;
55053;SDS011;40954;45.668;18.980;2023-04-08T13:43:04;13.65;;;12.20;;
55053;SDS011;40954;45.668;18.980;2023-04-08T13:45:30;18.73;;;11.40;;
55053;SDS011;40954;45.668;18.980;2023-04-08T13:47:56;12.75;;;10.80;;
55053;SDS011;40954;45.668;18.980;2023-04-08T13:50:23;11.07;;;10.02;;
55053;SDS011;40954;45.668;18.980;2023-04-08T13:52:49;11.63;;;10.43;;
55053;SDS011;40954;45.668;18.980;2023-04-08T13:55:15;12.68;;;11.43;;
55053;SDS011;40954;45.668;18.980;2023-04-08T13:57:41;13.75;;;12.43;;
55053;SDS011;40954;45.668;18.980;2023-04-08T14:00:08;14.80;;;13.40;;
55053;SDS011;40954;45.668;18.980;2023-04-08T14:02:34;13.38;;;12.05;;
55053;SDS011;40954;45.668;18.980;2023-04-08T14:05:01;13.43;;;12.13;;
55053;SDS011;40954;45.668;18.980;2023-04-08T14:07:27;24.80;;;18.13;;
55053;SDS011;40954;45.668;18.980;2023-04-08T14:09:53;13.63;;;11.95;;
55053;SDS011;40954;45.668;18.980;2023-04-08T14:12:20;10.68;;;9.68;;
55053;SDS011;40954;45.668;18.980;2023-04-08T14:14:46;10.60;;;9.45;;